Positano Jet — IFTU — position and weather

sailwx.info

Track history (hours):
 
Tides and Currents Weather Stations Pressure Air Temp Water Temp Dewpoint Dewpoint Depression Visibility Wind Speed Wind Dir Waves Ship Positions

Positano Jet

Last reported at 2016-May-30 14:33 UTC. Time now 2016-May-30 14:35 UTC.
Position N 40°37' E 014°29'.

Length 23 m; draft 2 m.

Type: Ship. MMSI: 247160800.

Date/timePositionNaut miles runAvg speedWind from/ knotsBaromVisibWave heightAir tempDewpointWater temp
2016-May-30 14:33N 40°37' E 014°29'6 5.5
2016-May-30 13:30N 40°35' E 014°22'6 6.6
2016-May-30 12:33N 40°33' E 014°14'0 0.0
2016-May-30 11:33N 40°33' E 014°14'0 0.0
2016-May-30 10:33N 40°33' E 014°14'0 0.0
2016-May-30 09:33N 40°33' E 014°14'1110.8
2016-May-30 08:33N 40°37' E 014°28'1 0.0
2016-May-29 16:33N 40°37' E 014°29'8 8.2
2016-May-29 15:33N 40°34' E 014°19'9 8.7
2016-May-29 14:33N 40°37' E 014°29'5 5.3
2016-May-29 13:32N 40°35' E 014°23'4 4.4
2016-May-29 12:33N 40°36' E 014°18'1110.6
2016-May-29 11:33N 40°43' E 014°28'0 0.0
2016-May-29 10:33N 40°43' E 014°28'1010.3
2016-May-29 09:33N 40°36' E 014°18'7 7.1
2016-May-29 08:33N 40°36' E 014°27'6 0.4
2016-May-28 16:24N 40°34' E 014°20'3 3.4
2016-May-28 15:34N 40°34' E 014°17'10 8.9
2016-May-28 14:24N 40°38' E 014°29'6 6.6
2016-May-28 13:29N 40°35' E 014°22'6 6.5
2016-May-28 12:33N 40°33' E 014°14'0 0.0
2016-May-28 11:34N 40°33' E 014°14'0 0.0
2016-May-28 10:34N 40°33' E 014°14'0 0.0
2016-May-28 09:33N 40°33' E 014°14'1110.7
2016-May-28 08:32N 40°37' E 014°28'0 0.0
2016-May-27 16:32N 40°37' E 014°28'9 9.5
2016-May-27 15:34N 40°34' E 014°17'3 1.4
2016-May-27 13:32N 40°34' E 014°20'5 4.6
2016-May-27 12:33N 40°33' E 014°14'0 0.0
2016-May-27 11:33N 40°33' E 014°14'0 0.0
2016-May-27 10:33N 40°33' E 014°14'0 0.0
2016-May-27 09:33N 40°33' E 014°14'1010.4
2016-May-27 08:33N 40°36' E 014°28'1 0.1
2016-May-26 16:33N 40°37' E 014°28'9 9.1
2016-May-26 15:33N 40°34' E 014°17'10 9.9
2016-May-26 14:33N 40°38' E 014°29'6 5.6
2016-May-26 13:33N 40°35' E 014°23'6 6.3
2016-May-26 12:32N 40°33' E 014°14'0 0.0
2016-May-26 11:33N 40°33' E 014°14'0 0.0
2016-May-26 10:34N 40°33' E 014°14'0 0.0
2016-May-26 09:33N 40°33' E 014°14'1211.4
2016-May-26 08:32N 40°37' E 014°29'1 0.5
2016-May-26 07:33N 40°37' E 014°29'2 0.1
2016-May-25 16:31N 40°37' E 014°28'8 8.8
2016-May-25 15:33N 40°34' E 014°17'10 9.5
2016-May-25 14:31N 40°38' E 014°29'6 5.9
2016-May-25 13:31N 40°35' E 014°22'6 6.5
2016-May-25 12:33N 40°33' E 014°14'0 0.0
2016-May-25 11:33N 40°33' E 014°14'0 0.0
2016-May-25 10:33N 40°33' E 014°14'0 0.0
2016-May-25 09:30N 40°33' E 014°14'1212.2
2016-May-25 08:32N 40°37' E 014°29'0 0.2
2016-May-25 07:29N 40°37' E 014°29'1 0.0
2016-May-23 16:34N 40°37' E 014°29'8 8.4
2016-May-23 15:33N 40°34' E 014°18'9 9.0
2016-May-23 14:33N 40°37' E 014°29'6 5.7
2016-May-23 13:32N 40°35' E 014°22'4 4.1
2016-May-23 12:33N 40°39' E 014°21'7 6.6
2016-May-23 11:32N 40°43' E 014°28'0 0.0
2016-May-23 10:33N 40°43' E 014°28'8 8.5
2016-May-23 09:34N 40°38' E 014°20'6 6.2
2016-May-23 08:33N 40°36' E 014°28'2 1.7
2016-May-23 07:32N 40°37' E 014°29'1 0.1
2016-May-22 16:32N 40°37' E 014°28'9 9.2
2016-May-22 15:33N 40°34' E 014°17'1010.0
2016-May-22 14:34N 40°38' E 014°29'5 4.7
2016-May-22 13:33N 40°35' E 014°24'7 7.3
2016-May-22 12:33N 40°33' E 014°14'0 0.0
2016-May-22 11:33N 40°33' E 014°14'0 0.0
2016-May-22 10:33N 40°33' E 014°14'0 0.0
2016-May-22 09:33N 40°33' E 014°14'11 0.7
2016-May-21 16:33N 40°37' E 014°29'9 9.4
2016-May-21 15:33N 40°34' E 014°17'10 9.8
2016-May-21 14:33N 40°38' E 014°29'6 5.8
2016-May-21 13:32N 40°35' E 014°22'6 6.3
2016-May-21 12:33N 40°33' E 014°14'0 0.0
2016-May-21 11:33N 40°33' E 014°14'0 0.0
2016-May-21 10:33N 40°33' E 014°14'0 0.0
2016-May-21 09:34N 40°33' E 014°14'1211.4
2016-May-21 08:32N 40°37' E 014°29'2 0.1
2016-May-20 16:33N 40°36' E 014°27'8 7.6
2016-May-20 15:33N 40°34' E 014°17'  
Track history (hours):
 
Tides and Currents Weather Stations Pressure Air Temp Water Temp Dewpoint Dewpoint Depression Visibility Wind Speed Wind Dir Waves Ship Positions

Positano Jet

Last reported at 2016-May-30 14:33 UTC. Time now 2016-May-30 14:35 UTC.
Position N 40°37' E 014°29'.

Length 23 m; draft 2 m.

Type: Ship. MMSI: 247160800.

Date/timePositionNaut miles runAvg speedWind from/ knotsBaromVisibWave heightAir tempDewpointWater temp
2016-May-30 14:33N 40°37' E 014°29'6 5.5
2016-May-30 13:30N 40°35' E 014°22'6 6.6
2016-May-30 12:33N 40°33' E 014°14'0 0.0
2016-May-30 11:33N 40°33' E 014°14'0 0.0
2016-May-30 10:33N 40°33' E 014°14'0 0.0
2016-May-30 09:33N 40°33' E 014°14'1110.8
2016-May-30 08:33N 40°37' E 014°28'1 0.0
2016-May-29 16:33N 40°37' E 014°29'8 8.2
2016-May-29 15:33N 40°34' E 014°19'9 8.7
2016-May-29 14:33N 40°37' E 014°29'5 5.3
2016-May-29 13:32N 40°35' E 014°23'4 4.4
2016-May-29 12:33N 40°36' E 014°18'1110.6
2016-May-29 11:33N 40°43' E 014°28'0 0.0
2016-May-29 10:33N 40°43' E 014°28'1010.3
2016-May-29 09:33N 40°36' E 014°18'7 7.1
2016-May-29 08:33N 40°36' E 014°27'6 0.4
2016-May-28 16:24N 40°34' E 014°20'3 3.4
2016-May-28 15:34N 40°34' E 014°17'10 8.9
2016-May-28 14:24N 40°38' E 014°29'6 6.6
2016-May-28 13:29N 40°35' E 014°22'6 6.5
2016-May-28 12:33N 40°33' E 014°14'0 0.0
2016-May-28 11:34N 40°33' E 014°14'0 0.0
2016-May-28 10:34N 40°33' E 014°14'0 0.0
2016-May-28 09:33N 40°33' E 014°14'1110.7
2016-May-28 08:32N 40°37' E 014°28'0 0.0
2016-May-27 16:32N 40°37' E 014°28'9 9.5
2016-May-27 15:34N 40°34' E 014°17'3 1.4
2016-May-27 13:32N 40°34' E 014°20'5 4.6
2016-May-27 12:33N 40°33' E 014°14'0 0.0
2016-May-27 11:33N 40°33' E 014°14'0 0.0
2016-May-27 10:33N 40°33' E 014°14'0 0.0
2016-May-27 09:33N 40°33' E 014°14'1010.4
2016-May-27 08:33N 40°36' E 014°28'1 0.1
2016-May-26 16:33N 40°37' E 014°28'9 9.1
2016-May-26 15:33N 40°34' E 014°17'10 9.9
2016-May-26 14:33N 40°38' E 014°29'6 5.6
2016-May-26 13:33N 40°35' E 014°23'6 6.3
2016-May-26 12:32N 40°33' E 014°14'0 0.0
2016-May-26 11:33N 40°33' E 014°14'0 0.0
2016-May-26 10:34N 40°33' E 014°14'0 0.0
2016-May-26 09:33N 40°33' E 014°14'1211.4
2016-May-26 08:32N 40°37' E 014°29'1 0.5
2016-May-26 07:33N 40°37' E 014°29'2 0.1
2016-May-25 16:31N 40°37' E 014°28'8 8.8
2016-May-25 15:33N 40°34' E 014°17'10 9.5
2016-May-25 14:31N 40°38' E 014°29'6 5.9
2016-May-25 13:31N 40°35' E 014°22'6 6.5
2016-May-25 12:33N 40°33' E 014°14'0 0.0
2016-May-25 11:33N 40°33' E 014°14'0 0.0
2016-May-25 10:33N 40°33' E 014°14'0 0.0
2016-May-25 09:30N 40°33' E 014°14'1212.2
2016-May-25 08:32N 40°37' E 014°29'0 0.2
2016-May-25 07:29N 40°37' E 014°29'1 0.0
2016-May-23 16:34N 40°37' E 014°29'8 8.4
2016-May-23 15:33N 40°34' E 014°18'9 9.0
2016-May-23 14:33N 40°37' E 014°29'6 5.7
2016-May-23 13:32N 40°35' E 014°22'4 4.1
2016-May-23 12:33N 40°39' E 014°21'7 6.6
2016-May-23 11:32N 40°43' E 014°28'0 0.0
2016-May-23 10:33N 40°43' E 014°28'8 8.5
2016-May-23 09:34N 40°38' E 014°20'6 6.2
2016-May-23 08:33N 40°36' E 014°28'2 1.7
2016-May-23 07:32N 40°37' E 014°29'1 0.1
2016-May-22 16:32N 40°37' E 014°28'9 9.2
2016-May-22 15:33N 40°34' E 014°17'1010.0
2016-May-22 14:34N 40°38' E 014°29'5 4.7
2016-May-22 13:33N 40°35' E 014°24'7 7.3
2016-May-22 12:33N 40°33' E 014°14'0 0.0
2016-May-22 11:33N 40°33' E 014°14'0 0.0
2016-May-22 10:33N 40°33' E 014°14'0 0.0
2016-May-22 09:33N 40°33' E 014°14'11 0.7
2016-May-21 16:33N 40°37' E 014°29'9 9.4
2016-May-21 15:33N 40°34' E 014°17'10 9.8
2016-May-21 14:33N 40°38' E 014°29'6 5.8
2016-May-21 13:32N 40°35' E 014°22'6 6.3
2016-May-21 12:33N 40°33' E 014°14'0 0.0
2016-May-21 11:33N 40°33' E 014°14'0 0.0
2016-May-21 10:33N 40°33' E 014°14'0 0.0
2016-May-21 09:34N 40°33' E 014°14'1211.4
2016-May-21 08:32N 40°37' E 014°29'2 0.1
2016-May-20 16:33N 40°36' E 014°27'8 7.6
2016-May-20 15:33N 40°34' E 014°17'  

Dump ship's entire track history